Station Historical Data
Daily Summary for July 17, 2017 Units:  English    Metric   Both
« Previous Day
Next Day »
Daily Weekly Monthly Yearly Custom
  High: Low: Average:
Temperature: 77.5 °F 65.4 °F 71.7 °F
Dew Point: 67.9 °F 61.7 °F 64.4 °F
Humidity: 93% 60% 79%
Wind Speed: 15.0mph 0.0mph 3.3mph
Wind Gust: 18.0mph - -
Wind- - SW
Pressure: 30.03 in 29.91 in -
Precipitation: 0.00 in    
Historical Graphs
 
 
Tabular Data for July 17, 2017
Time Temperature Dew Point Pressure Wind Wind Speed Wind Gust Humidity Rainfall Rate (Hourly)
00:04 69.2 °F 64.5 °F 29.93 in SE 2.0 mph 4.0 mph 85% 0.00 in
00:09 69.2 °F 64.5 °F 29.93 in SE 3.0 mph 7.0 mph 85% 0.00 in
00:14 69.3 °F 64.9 °F 29.93 in ESE 4.0 mph 4.0 mph 86% 0.00 in
00:19 69.3 °F 64.9 °F 29.93 in SE 2.0 mph 7.0 mph 86% 0.00 in
00:24 69.1 °F 64.7 °F 29.93 in SSE 4.0 mph 6.0 mph 86% 0.00 in
00:29 69.1 °F 64.7 °F 29.92 in ESE 5.0 mph 6.0 mph 86% 0.00 in
00:34 68.9 °F 64.5 °F 29.92 in SSE 2.0 mph 6.0 mph 86% 0.00 in
00:39 68.8 °F 64.4 °F 29.93 in SE 2.0 mph 5.0 mph 86% 0.00 in
00:44 68.6 °F 64.6 °F 29.92 in ESE 2.0 mph 4.0 mph 87% 0.00 in
00:49 68.6 °F 64.6 °F 29.92 in ESE 2.0 mph 5.0 mph 87% 0.00 in
00:54 68.5 °F 64.5 °F 29.92 in ESE 1.0 mph 8.0 mph 87% 0.00 in
00:59 68.5 °F 64.5 °F 29.93 in ESE 2.0 mph 5.0 mph 87% 0.00 in
01:04 68.6 °F 64.6 °F 29.93 in SE 2.0 mph 5.0 mph 87% 0.00 in
01:09 68.6 °F 64.6 °F 29.92 in Calm   6.0 mph 87% 0.00 in
01:14 68.6 °F 64.2 °F 29.92 in SE 2.0 mph 6.0 mph 86% 0.00 in
01:19 68.6 °F 64.2 °F 29.92 in SE 2.0 mph 8.0 mph 86% 0.00 in
01:24 68.6 °F 64.2 °F 29.93 in SE 2.0 mph 8.0 mph 86% 0.00 in
01:29 68.7 °F 64.3 °F 29.93 in SSE 2.0 mph 5.0 mph 86% 0.01 in
01:34 68.7 °F 64.3 °F 29.93 in Calm   4.0 mph 86% 0.01 in
01:39 68.6 °F 64.2 °F 29.94 in Calm     86% 0.01 in
01:44 68.6 °F 64.2 °F 29.94 in SE 2.0 mph 2.0 mph 86% 0.03 in
01:49 68.5 °F 64.5 °F 29.94 in Calm   2.0 mph 87% 0.04 in
01:54 68.2 °F 64.2 °F 29.93 in ENE 2.0 mph 3.0 mph 87% 0.06 in
01:59 68.1 °F 64.4 °F 29.92 in East 3.0 mph 5.0 mph 88% 0.06 in
02:04 68.0 °F 64.3 °F 29.93 in ENE 2.0 mph 5.0 mph 88% 0.06 in
02:09 67.9 °F 64.5 °F 29.93 in ENE 1.0 mph 5.0 mph 89% 0.06 in
02:14 67.7 °F 64.3 °F 29.92 in Calm   2.0 mph 89% 0.06 in
02:19 67.6 °F 64.2 °F 29.92 in Calm     89% 0.06 in
02:24 67.5 °F 64.5 °F 29.92 in Calm     90% 0.06 in
02:29 67.4 °F 64.4 °F 29.92 in Calm     90% 0.05 in
02:34 67.3 °F 64.3 °F 29.92 in Calm     90% 0.05 in
02:39 67.2 °F 64.2 °F 29.92 in Calm     90% 0.05 in
02:44 67.1 °F 64.1 °F 29.92 in Calm     90% 0.03 in
02:49 67.0 °F 64.0 °F 29.91 in Calm     90% 0.02 in
02:54 67.0 °F 64.0 °F 29.91 in Calm     90% 0.00 in
02:59 67.0 °F 64.0 °F 29.91 in Calm     90% 0.00 in
03:04 66.9 °F 64.2 °F 29.91 in Calm     91% 0.01 in
03:09 67.0 °F 64.3 °F 29.91 in Calm     91% 0.01 in
03:14 67.0 °F 64.3 °F 29.91 in Calm     91% 0.01 in
03:19 67.0 °F 64.3 °F 29.91 in Calm     91% 0.01 in
03:24 67.1 °F 64.4 °F 29.91 in Calm     91% 0.01 in
03:29 67.1 °F 64.4 °F 29.91 in Calm     91% 0.01 in
03:34 67.1 °F 64.4 °F 29.91 in Calm     91% 0.01 in
03:39 67.2 °F 64.5 °F 29.91 in Calm     91% 0.01 in
03:44 67.1 °F 64.4 °F 29.91 in Calm     91% 0.01 in
03:49 67.0 °F 64.3 °F 29.91 in Calm     91% 0.01 in
03:54 66.8 °F 64.1 °F 29.92 in Calm     91% 0.01 in
03:59 66.7 °F 64.0 °F 29.91 in Calm     91% 0.01 in
04:04 66.5 °F 63.8 °F 29.91 in Calm     91% 0.00 in
04:09 66.5 °F 64.1 °F 29.92 in Calm     92% 0.00 in
04:14 66.4 °F 64.0 °F 29.92 in Calm   4.0 mph 92% 0.00 in
04:19 66.4 °F 64.0 °F 29.92 in Calm     92% 0.00 in
04:24 66.3 °F 63.9 °F 29.91 in Calm     92% 0.00 in
04:29 66.3 °F 63.9 °F 29.92 in Calm     92% 0.00 in
04:34 66.3 °F 63.9 °F 29.92 in Calm     92% 0.00 in
04:39 66.3 °F 63.9 °F 29.91 in Calm     92% 0.00 in
04:44 66.2 °F 63.8 °F 29.91 in Calm     92% 0.00 in
04:49 66.1 °F 63.7 °F 29.91 in Calm     92% 0.00 in
04:54 65.9 °F 63.5 °F 29.91 in Calm     92% 0.00 in
04:59 65.9 °F 63.5 °F 29.91 in Calm     92% 0.00 in
05:04 65.9 °F 63.5 °F 29.91 in Calm     92% 0.00 in
05:09 66.0 °F 63.6 °F 29.92 in Calm     92% 0.00 in
05:14 66.0 °F 63.6 °F 29.92 in Calm     92% 0.00 in
05:19 65.9 °F 63.5 °F 29.91 in Calm     92% 0.00 in
05:24 65.8 °F 63.4 °F 29.91 in Calm     92% 0.00 in
05:29 65.8 °F 63.4 °F 29.92 in Calm     92% 0.00 in
05:34 65.5 °F 63.1 °F 29.92 in Calm     92% 0.00 in
05:39 65.4 °F 63.0 °F 29.92 in Calm     92% 0.00 in
05:44 65.4 °F 63.0 °F 29.92 in Calm     92% 0.00 in
05:49 65.6 °F 63.2 °F 29.92 in Calm     92% 0.00 in
05:54 65.6 °F 63.2 °F 29.92 in Calm     92% 0.00 in
05:59 65.8 °F 63.4 °F 29.92 in Calm     92% 0.00 in
06:04 65.8 °F 63.4 °F 29.92 in Calm     92% 0.00 in
06:09 65.8 °F 63.4 °F 29.92 in Calm     92% 0.00 in
06:14 65.8 °F 63.7 °F 29.92 in Calm     93% 0.00 in
06:19 65.8 °F 63.7 °F 29.92 in Calm     93% 0.00 in
06:24 65.8 °F 63.7 °F 29.92 in Calm     93% 0.00 in
06:29 66.0 °F 63.9 °F 29.92 in Calm     93% 0.00 in
06:34 65.9 °F 63.5 °F 29.92 in Calm     92% 0.00 in
06:39 65.9 °F 63.8 °F 29.92 in Calm     93% 0.00 in
06:44 66.1 °F 64.0 °F 29.92 in Calm     93% 0.00 in
06:49 66.2 °F 64.1 °F 29.93 in Calm     93% 0.00 in
06:54 66.4 °F 64.3 °F 29.93 in Calm     93% 0.00 in
06:59 66.8 °F 64.7 °F 29.93 in Calm     93% 0.00 in
07:04 67.1 °F 65.0 °F 29.93 in Calm   3.0 mph 93% 0.00 in
07:09 67.3 °F 64.9 °F 29.93 in SSE 1.0 mph 3.0 mph 92% 0.00 in
07:14 67.4 °F 65.0 °F 29.93 in Calm   4.0 mph 92% 0.00 in
07:19 67.7 °F 65.3 °F 29.94 in Calm   3.0 mph 92% 0.00 in
07:24 68.1 °F 65.7 °F 29.94 in Calm   3.0 mph 92% 0.00 in
07:29 68.6 °F 65.9 °F 29.94 in Calm     91% 0.00 in
07:34 69.0 °F 66.3 °F 29.94 in SSW 1.0 mph 4.0 mph 91% 0.00 in
07:39 69.5 °F 66.4 °F 29.94 in SSW 4.0 mph 5.0 mph 90% 0.00 in
07:44 69.9 °F 66.8 °F 29.95 in SW 1.0 mph 5.0 mph 90% 0.00 in
07:49 70.0 °F 66.9 °F 29.95 in SSW 1.0 mph 6.0 mph 90% 0.00 in
07:54 70.0 °F 66.6 °F 29.95 in SSW 1.0 mph 5.0 mph 89% 0.00 in
07:59 70.1 °F 66.7 °F 29.95 in SSW 1.0 mph 5.0 mph 89% 0.00 in
08:04 70.3 °F 66.9 °F 29.95 in SW 1.0 mph 3.0 mph 89% 0.00 in
08:09 70.8 °F 67.4 °F 29.95 in SW 2.0 mph 5.0 mph 89% 0.00 in
08:14 71.3 °F 67.9 °F 29.95 in Calm   4.0 mph 89% 0.00 in
08:19 71.7 °F 67.6 °F 29.95 in WSW 3.0 mph 8.0 mph 87% 0.00 in
08:24 71.4 °F 66.7 °F 29.95 in West 6.0 mph 12.0 mph 85% 0.00 in
08:29 71.9 °F 66.5 °F 29.96 in WSW 5.0 mph 12.0 mph 83% 0.00 in
08:34 72.4 °F 66.6 °F 29.96 in WSW 4.0 mph 9.0 mph 82% 0.00 in
08:39 72.7 °F 66.5 °F 29.96 in WNW 4.0 mph 12.0 mph 81% 0.00 in
08:44 72.8 °F 66.6 °F 29.96 in WNW 2.0 mph 8.0 mph 81% 0.00 in
08:49 72.4 °F 66.2 °F 29.96 in SW 3.0 mph 8.0 mph 81% 0.00 in
08:54 73.1 °F 66.6 °F 29.96 in West 3.0 mph 7.0 mph 80% 0.00 in
08:59 73.0 °F 66.8 °F 29.96 in WSW 4.0 mph 8.0 mph 81% 0.00 in
09:04 72.6 °F 65.3 °F 29.96 in WSW 5.0 mph 13.0 mph 78% 0.00 in
09:09 72.6 °F 65.7 °F 29.97 in SW 5.0 mph 10.0 mph 79% 0.00 in
09:14 73.2 °F 66.3 °F 29.97 in WSW 3.0 mph 10.0 mph 79% 0.00 in
09:19 73.3 °F 65.7 °F 29.97 in SW 5.0 mph 10.0 mph 77% 0.00 in
09:24 73.8 °F 66.1 °F 29.97 in WSW 8.0 mph 10.0 mph 77% 0.00 in
09:29 74.2 °F 65.8 °F 29.97 in WSW 5.0 mph 12.0 mph 75% 0.00 in
09:34 74.8 °F 66.3 °F 29.97 in WSW 5.0 mph 12.0 mph 75% 0.00 in
09:39 74.3 °F 65.1 °F 29.97 in WSW 5.0 mph 12.0 mph 73% 0.00 in
09:44 73.5 °F 64.7 °F 29.97 in WSW 6.0 mph 12.0 mph 74% 0.00 in
09:49 73.1 °F 64.3 °F 29.97 in SW 5.0 mph 11.0 mph 74% 0.00 in
09:54 74.0 °F 65.6 °F 29.97 in SSE 9.0 mph 10.0 mph 75% 0.00 in
09:59 73.5 °F 65.5 °F 29.97 in WSW 7.0 mph 10.0 mph 76% 0.00 in
10:04 73.7 °F 65.3 °F 29.97 in West 3.0 mph 11.0 mph 75% 0.00 in
10:09 74.4 °F 65.2 °F 29.97 in West 6.0 mph 11.0 mph 73% 0.00 in
10:14 74.7 °F 65.5 °F 29.97 in SW 9.0 mph 11.0 mph 73% 0.00 in
10:19 74.6 °F 65.4 °F 29.97 in SW 3.0 mph 10.0 mph 73% 0.00 in
10:24 75.4 °F 65.7 °F 29.98 in SW 7.0 mph 9.0 mph 72% 0.00 in
10:29 75.1 °F 65.5 °F 29.98 in SW 5.0 mph 11.0 mph 72% 0.00 in
10:34 75.4 °F 66.5 °F 29.98 in SW 6.0 mph 11.0 mph 74% 0.00 in
10:39 75.0 °F 65.4 °F 29.98 in WSW 6.0 mph 13.0 mph 72% 0.00 in
10:44 74.9 °F 65.7 °F 29.99 in WSW 6.0 mph 13.0 mph 73% 0.00 in
10:49 74.9 °F 65.7 °F 29.98 in West 4.0 mph 10.0 mph 73% 0.00 in
10:54 75.3 °F 65.6 °F 29.99 in WSW 7.0 mph 12.0 mph 72% 0.00 in
10:59 75.5 °F 65.4 °F 29.98 in SW 6.0 mph 12.0 mph 71% 0.00 in
11:04 75.5 °F 65.8 °F 29.99 in SW 6.0 mph 12.0 mph 72% 0.00 in
11:09 75.8 °F 65.7 °F 29.99 in WSW 5.0 mph 12.0 mph 71% 0.00 in
11:14 75.6 °F 65.5 °F 29.98 in WSW 4.0 mph 11.0 mph 71% 0.00 in
11:19 75.8 °F 64.9 °F 29.98 in SW 4.0 mph 11.0 mph 69% 0.00 in
11:24 76.4 °F 65.1 °F 29.98 in SW 6.0 mph 12.0 mph 68% 0.00 in
11:29 76.2 °F 65.3 °F 29.98 in SW 6.0 mph 12.0 mph 69% 0.00 in
11:34 76.4 °F 65.1 °F 29.98 in SW 6.0 mph 10.0 mph 68% 0.00 in
11:39 76.4 °F 65.5 °F 29.99 in WSW 7.0 mph 11.0 mph 69% 0.00 in
11:44 76.3 °F 65.4 °F 29.98 in SW 5.0 mph 12.0 mph 69% 0.00 in
11:49 76.5 °F 66.0 °F 29.99 in SSW 5.0 mph 11.0 mph 70% 0.00 in
11:54 76.4 °F 65.5 °F 29.99 in SW 4.0 mph 12.0 mph 69% 0.00 in
11:59 76.5 °F 65.6 °F 29.99 in SW 6.0 mph 12.0 mph 69% 0.00 in
12:04 76.3 °F 64.1 °F 29.98 in SW 7.0 mph 14.0 mph 66% 0.00 in
12:09 76.4 °F 64.6 °F 29.98 in SW 6.0 mph 14.0 mph 67% 0.00 in
12:14 76.7 °F 65.3 °F 29.98 in SW 6.0 mph 13.0 mph 68% 0.00 in
12:19 76.8 °F 64.6 °F 29.98 in SW 6.0 mph 13.0 mph 66% 0.00 in
12:24 76.3 °F 64.1 °F 29.98 in West 5.0 mph 10.0 mph 66% 0.00 in
12:29 76.4 °F 65.5 °F 29.98 in WSW 5.0 mph 11.0 mph 69% 0.00 in
12:34 76.9 °F 65.1 °F 29.98 in SW 10.0 mph 14.0 mph 67% 0.00 in
12:39 76.7 °F 65.3 °F 29.98 in SSW 6.0 mph 12.0 mph 68% 0.00 in
12:44 76.6 °F 65.7 °F 29.98 in SW 4.0 mph 13.0 mph 69% 0.00 in
12:49 76.4 °F 65.1 °F 29.98 in WSW 6.0 mph 13.0 mph 68% 0.00 in
12:54 76.9 °F 66.0 °F 29.98 in SW 6.0 mph 13.0 mph 69% 0.00 in
12:59 77.0 °F 65.6 °F 29.98 in SW 6.0 mph 13.0 mph 68% 0.00 in
13:04 76.4 °F 65.1 °F 29.98 in WSW 6.0 mph 13.0 mph 68% 0.00 in
13:09 76.0 °F 65.5 °F 29.98 in WSW 6.0 mph 13.0 mph 70% 0.00 in
13:14 76.7 °F 64.5 °F 29.98 in WSW 7.0 mph 13.0 mph 66% 0.00 in
13:19 77.0 °F 65.6 °F 29.99 in SW 6.0 mph 13.0 mph 68% 0.00 in
13:24 76.1 °F 64.8 °F 29.98 in West 15.0 mph 15.0 mph 68% 0.00 in
13:29 76.8 °F 64.6 °F 29.99 in WSW 7.0 mph 15.0 mph 66% 0.00 in
13:34 76.7 °F 64.9 °F 29.99 in WSW 6.0 mph 15.0 mph 67% 0.00 in
13:39 77.1 °F 64.4 °F 29.98 in WSW 6.0 mph 12.0 mph 65% 0.00 in
13:44 77.5 °F 64.8 °F 29.99 in SSW 8.0 mph 12.0 mph 65% 0.00 in
13:49 76.4 °F 63.3 °F 29.99 in SW 6.0 mph 16.0 mph 64% 0.00 in
13:54 76.5 °F 64.7 °F 29.99 in WSW 7.0 mph 16.0 mph 67% 0.00 in
13:59 76.5 °F 65.1 °F 29.99 in WSW 7.0 mph 15.0 mph 68% 0.00 in
14:04 76.4 °F 65.9 °F 29.99 in WSW 8.0 mph 12.0 mph 70% 0.00 in
14:09 76.7 °F 65.3 °F 29.99 in WSW 7.0 mph 13.0 mph 68% 0.00 in
14:14 76.5 °F 64.7 °F 29.98 in West 4.0 mph 13.0 mph 67% 0.00 in
14:19 76.7 °F 64.5 °F 29.98 in SW 12.0 mph 12.0 mph 66% 0.00 in
14:24 77.1 °F 65.3 °F 29.99 in WSW 6.0 mph 15.0 mph 67% 0.00 in
14:29 77.5 °F 66.1 °F 29.99 in West 6.0 mph 15.0 mph 68% 0.00 in
14:34 76.7 °F 63.6 °F 29.99 in WSW 7.0 mph 13.0 mph 64% 0.00 in
14:39 76.2 °F 63.1 °F 29.99 in WSW 8.0 mph 16.0 mph 64% 0.00 in
14:44 76.8 °F 63.2 °F 29.99 in WSW 8.0 mph 16.0 mph 63% 0.00 in
14:49 76.6 °F 63.5 °F 29.99 in WSW 8.0 mph 16.0 mph 64% 0.00 in
14:54 77.1 °F 63.1 °F 29.99 in SW 6.0 mph 14.0 mph 62% 0.00 in
14:59 76.6 °F 63.1 °F 29.99 in WSW 10.0 mph 16.0 mph 63% 0.00 in
15:04 76.1 °F 63.0 °F 29.99 in West 5.0 mph 14.0 mph 64% 0.00 in
15:09 77.1 °F 63.1 °F 29.99 in WSW 8.0 mph 18.0 mph 62% 0.00 in
15:14 77.2 °F 63.2 °F 29.99 in WSW 5.0 mph 16.0 mph 62% 0.00 in
15:19 76.8 °F 62.8 °F 29.99 in SSW 6.0 mph 13.0 mph 62% 0.00 in
15:24 76.6 °F 62.1 °F 29.99 in WSW 9.0 mph 13.0 mph 61% 0.00 in
15:29 76.8 °F 62.8 °F 29.98 in SW 7.0 mph 14.0 mph 62% 0.00 in
15:34 77.0 °F 64.3 °F 29.99 in SW 7.0 mph 14.0 mph 65% 0.00 in
15:39 77.0 °F 63.9 °F 29.98 in SW 7.0 mph 14.0 mph 64% 0.00 in
15:44 76.3 °F 63.2 °F 29.98 in WSW 8.0 mph 14.0 mph 64% 0.00 in
15:49 76.7 °F 63.6 °F 29.99 in SW 7.0 mph 12.0 mph 64% 0.00 in
15:54 77.4 °F 62.9 °F 29.99 in WSW 6.0 mph 12.0 mph 61% 0.00 in
15:59 76.8 °F 62.3 °F 29.99 in WSW 6.0 mph 13.0 mph 61% 0.00 in
16:04 76.5 °F 62.0 °F 29.99 in West 4.0 mph 13.0 mph 61% 0.00 in
16:09 76.6 °F 61.7 °F 29.98 in West 5.0 mph 13.0 mph 60% 0.00 in
16:14 76.7 °F 62.2 °F 29.99 in WSW 11.0 mph 12.0 mph 61% 0.00 in
16:19 76.4 °F 62.9 °F 29.99 in WSW 5.0 mph 17.0 mph 63% 0.00 in
16:24 76.1 °F 62.1 °F 29.98 in WSW 7.0 mph 17.0 mph 62% 0.00 in
16:29 76.6 °F 62.6 °F 29.99 in West 7.0 mph 15.0 mph 62% 0.00 in
16:34 76.5 °F 63.0 °F 29.99 in WSW 6.0 mph 15.0 mph 63% 0.00 in
16:39 76.2 °F 62.7 °F 29.99 in South 5.0 mph 16.0 mph 63% 0.00 in
16:44 76.3 °F 64.1 °F 29.99 in SW 7.0 mph 12.0 mph 66% 0.00 in
16:49 76.6 °F 64.0 °F 29.99 in West 4.0 mph 10.0 mph 65% 0.00 in
16:54 76.5 °F 63.9 °F 29.99 in WSW 5.0 mph 10.0 mph 65% 0.00 in
16:59 77.2 °F 64.1 °F 29.99 in WSW 4.0 mph 10.0 mph 64% 0.00 in
17:04 76.8 °F 63.7 °F 29.99 in WSW 4.0 mph 9.0 mph 64% 0.00 in
17:09 76.4 °F 63.8 °F 29.99 in SW 5.0 mph 13.0 mph 65% 0.00 in
17:14 76.0 °F 62.9 °F 29.98 in SSW 6.0 mph 12.0 mph 64% 0.00 in
17:19 76.2 °F 63.6 °F 29.98 in WNW 8.0 mph 10.0 mph 65% 0.00 in
17:24 75.9 °F 63.3 °F 29.99 in West 6.0 mph 12.0 mph 65% 0.00 in
17:29 75.8 °F 63.2 °F 29.99 in WSW 6.0 mph 12.0 mph 65% 0.00 in
17:34 76.0 °F 63.8 °F 29.99 in WSW 6.0 mph 11.0 mph 66% 0.00 in
17:39 75.4 °F 63.2 °F 29.98 in SW 4.0 mph 11.0 mph 66% 0.00 in
17:44 75.2 °F 63.9 °F 29.98 in SW 4.0 mph 11.0 mph 68% 0.00 in
17:49 75.3 °F 64.4 °F 29.98 in WSW 5.0 mph 9.0 mph 69% 0.00 in
17:54 75.3 °F 64.4 °F 29.98 in WSW 6.0 mph 12.0 mph 69% 0.00 in
17:59 75.0 °F 63.3 °F 29.98 in WSW 6.0 mph 13.0 mph 67% 0.00 in
18:04 75.1 °F 63.8 °F 29.98 in WSW 6.0 mph 13.0 mph 68% 0.00 in
18:09 75.0 °F 63.7 °F 29.98 in WSW 5.0 mph 11.0 mph 68% 0.00 in
18:14 75.0 °F 63.7 °F 29.98 in WSW 5.0 mph 11.0 mph 68% 0.00 in
18:19 74.6 °F 63.8 °F 29.99 in West 7.0 mph 12.0 mph 69% 0.00 in
18:24 74.3 °F 63.9 °F 29.99 in WSW 4.0 mph 7.0 mph 70% 0.00 in
18:29 74.5 °F 64.1 °F 29.99 in SW 5.0 mph 9.0 mph 70% 0.00 in
18:34 74.8 °F 64.8 °F 29.99 in SW 3.0 mph 8.0 mph 71% 0.00 in
18:39 74.6 °F 64.2 °F 29.99 in West 6.0 mph 10.0 mph 70% 0.00 in
18:44 74.8 °F 64.8 °F 29.99 in SW 2.0 mph 7.0 mph 71% 0.00 in
18:49 74.6 °F 64.6 °F 29.99 in SW 2.0 mph 9.0 mph 71% 0.00 in
18:54 74.0 °F 64.0 °F 29.99 in SW 5.0 mph 11.0 mph 71% 0.00 in
18:59 73.5 °F 63.9 °F 29.99 in WSW 5.0 mph 11.0 mph 72% 0.00 in
19:04 73.5 °F 64.3 °F 30.00 in SW 5.0 mph 9.0 mph 73% 0.00 in
19:09 73.4 °F 64.2 °F 30.00 in SW 5.0 mph 9.0 mph 73% 0.00 in
19:14 73.1 °F 63.9 °F 30.00 in WSW 5.0 mph 9.0 mph 73% 0.00 in
19:19 73.1 °F 63.9 °F 30.00 in WSW 3.0 mph 9.0 mph 73% 0.00 in
19:24 73.1 °F 63.9 °F 30.00 in SW 4.0 mph 11.0 mph 73% 0.00 in
19:29 73.0 °F 64.2 °F 30.00 in SW 2.0 mph 9.0 mph 74% 0.00 in
19:34 72.8 °F 64.0 °F 30.01 in West 2.0 mph 7.0 mph 74% 0.00 in
19:39 72.7 °F 64.3 °F 30.01 in SW 3.0 mph 8.0 mph 75% 0.00 in
19:44 72.6 °F 64.2 °F 30.01 in WSW 3.0 mph 8.0 mph 75% 0.00 in
19:49 72.5 °F 64.1 °F 30.01 in West 4.0 mph 9.0 mph 75% 0.00 in
19:54 72.2 °F 63.8 °F 30.01 in WSW 4.0 mph 10.0 mph 75% 0.00 in
19:59 72.0 °F 63.6 °F 30.01 in WSW 5.0 mph 10.0 mph 75% 0.00 in
20:04 71.9 °F 63.9 °F 30.02 in WSW 4.0 mph 9.0 mph 76% 0.00 in
20:09 71.8 °F 63.8 °F 30.02 in WSW 4.0 mph 9.0 mph 76% 0.00 in
20:14 71.6 °F 63.6 °F 30.02 in WSW 4.0 mph 8.0 mph 76% 0.00 in
20:19 71.4 °F 63.8 °F 30.02 in West 2.0 mph 6.0 mph 77% 0.00 in
20:24 71.4 °F 63.8 °F 30.03 in WSW 3.0 mph 9.0 mph 77% 0.00 in
20:29 71.3 °F 63.7 °F 30.02 in WSW 4.0 mph 9.0 mph 77% 0.00 in
20:34 71.2 °F 64.0 °F 30.02 in WSW 3.0 mph 7.0 mph 78% 0.00 in
20:39 71.0 °F 64.2 °F 30.02 in SW 2.0 mph 6.0 mph 79% 0.00 in
20:44 70.9 °F 64.1 °F 30.03 in SW 3.0 mph 6.0 mph 79% 0.00 in
20:49 70.7 °F 64.2 °F 30.03 in SW 4.0 mph 7.0 mph 80% 0.00 in
20:54 70.6 °F 64.1 °F 30.03 in SW 3.0 mph 7.0 mph 80% 0.00 in
20:59 70.5 °F 64.4 °F 30.03 in SW 3.0 mph 10.0 mph 81% 0.00 in
21:04 70.4 °F 64.3 °F 30.03 in SSW 4.0 mph 9.0 mph 81% 0.00 in
21:09 70.3 °F 64.2 °F 30.03 in SW 3.0 mph 5.0 mph 81% 0.00 in
21:14 70.3 °F 64.2 °F 30.02 in SW 3.0 mph 5.0 mph 81% 0.00 in
21:19 70.2 °F 64.1 °F 30.02 in SW 4.0 mph 6.0 mph 81% 0.00 in
21:24 70.1 °F 64.0 °F 30.02 in SSW 3.0 mph 6.0 mph 81% 0.00 in
21:29 70.1 °F 64.0 °F 30.02 in SW 3.0 mph 7.0 mph 81% 0.00 in
21:34 70.0 °F 63.9 °F 30.02 in SW 2.0 mph 7.0 mph 81% 0.00 in
21:39 69.9 °F 63.8 °F 30.01 in SW 2.0 mph 7.0 mph 81% 0.00 in
21:44 69.9 °F 64.2 °F 30.02 in SW 2.0 mph 5.0 mph 82% 0.00 in
21:49 69.8 °F 64.1 °F 30.02 in SW 2.0 mph 5.0 mph 82% 0.00 in
21:54 69.5 °F 63.8 °F 30.02 in SW 3.0 mph 3.0 mph 82% 0.00 in
21:59 69.4 °F 63.7 °F 30.02 in SW 2.0 mph 4.0 mph 82% 0.00 in
22:04 69.4 °F 64.0 °F 30.02 in WSW 2.0 mph 4.0 mph 83% 0.00 in
22:09 69.4 °F 64.0 °F 30.02 in Calm   4.0 mph 83% 0.00 in
22:14 69.4 °F 64.0 °F 30.02 in SW 1.0 mph 3.0 mph 83% 0.00 in
22:19 69.4 °F 64.0 °F 30.02 in Calm   6.0 mph 83% 0.00 in
22:24 69.4 °F 64.0 °F 30.02 in Calm   4.0 mph 83% 0.00 in
22:29 69.2 °F 63.8 °F 30.02 in SW 1.0 mph 4.0 mph 83% 0.00 in
22:34 69.1 °F 63.7 °F 30.02 in SW 1.0 mph 4.0 mph 83% 0.00 in
22:39 69.0 °F 63.6 °F 30.02 in SSW 1.0 mph 4.0 mph 83% 0.00 in
22:44 69.0 °F 64.0 °F 30.02 in SW 2.0 mph 4.0 mph 84% 0.00 in
22:49 69.0 °F 64.0 °F 30.02 in SW 2.0 mph 3.0 mph 84% 0.00 in
22:54 69.0 °F 64.0 °F 30.02 in SW 2.0 mph 3.0 mph 84% 0.00 in
22:59 68.9 °F 63.9 °F 30.02 in SW 2.0 mph 5.0 mph 84% 0.00 in
23:04 69.0 °F 64.0 °F 30.03 in WSW 2.0 mph 6.0 mph 84% 0.00 in
23:09 69.0 °F 64.0 °F 30.03 in WSW 2.0 mph 6.0 mph 84% 0.00 in
23:14 69.0 °F 64.0 °F 30.03 in WSW 2.0 mph 4.0 mph 84% 0.00 in
23:19 69.0 °F 63.6 °F 30.02 in SSW 2.0 mph 3.0 mph 83% 0.00 in
23:24 68.9 °F 63.5 °F 30.03 in Calm   3.0 mph 83% 0.00 in
23:29 68.6 °F 63.6 °F 30.02 in SSW 1.0 mph 3.0 mph 84% 0.00 in
23:34 68.2 °F 63.2 °F 30.02 in Calm   1.0 mph 84% 0.00 in
23:39 67.7 °F 63.0 °F 30.02 in Calm     85% 0.00 in
23:44 67.6 °F 63.3 °F 30.02 in Calm     86% 0.00 in
23:49 67.4 °F 63.1 °F 30.03 in Calm     86% 0.00 in
23:54 67.4 °F 63.1 °F 30.03 in Calm     86% 0.00 in
23:59 67.4 °F 63.4 °F 30.03 in Calm     87% 0.00 in
Buffalo, New York, USA
Compliments of Weather Underground - 2.5 mb